ěÝzenÝ letovÚho provozu ╚eskÚ republiky
Letiste: LKNA Aktualizace: 19.06.2024 03:59:38  UTC
 METAR LKNA 19.06. 04:00 ...
METAR LKNA 190400Z VRB02KT CAVOK 18/16 Q1013 RMK BLACK=
 TAF LKNA 18.06. 23:00 ...
TAF LKNA 182300Z 1900/2000 10005KT CAVOK      TEMPO 1906/1912 18005KT      BECMG 1916/1918 29010KT      TEMPO 1916/2000 30015G25KT=